createdAt,value
2018-07-16T00:01:12.118Z,17.16
2018-07-16T00:03:41.290Z,17.07
2018-07-16T00:06:10.456Z,17.00
2018-07-16T00:08:39.652Z,17.00
2018-07-16T00:11:08.830Z,16.86
2018-07-16T00:13:38.099Z,16.84
2018-07-16T00:16:07.295Z,16.81
2018-07-16T00:18:36.483Z,16.68
2018-07-16T00:21:05.635Z,16.61
2018-07-16T00:23:35.115Z,16.48
2018-07-16T00:26:04.590Z,16.51
2018-07-16T00:28:33.893Z,16.38
2018-07-16T00:31:03.034Z,16.37
2018-07-16T00:33:33.147Z,16.29
2018-07-16T00:36:03.053Z,16.19
2018-07-16T00:38:32.218Z,16.17
2018-07-16T00:41:01.363Z,16.19
2018-07-16T00:43:30.684Z,16.01
2018-07-16T00:45:59.855Z,15.91
2018-07-16T00:48:29.035Z,15.80
2018-07-16T00:50:58.239Z,15.73
2018-07-16T00:53:27.723Z,15.74
2018-07-16T00:55:57.355Z,15.70
2018-07-16T00:58:26.535Z,15.70
2018-07-16T01:00:55.707Z,15.64
2018-07-16T01:03:24.933Z,15.62
2018-07-16T01:05:54.099Z,15.65
2018-07-16T01:08:23.296Z,15.52
2018-07-16T01:10:52.487Z,15.52
2018-07-16T01:13:21.691Z,15.48
2018-07-16T01:15:50.878Z,15.38
2018-07-16T01:18:20.082Z,15.29
2018-07-16T01:20:49.271Z,15.13
2018-07-16T01:23:18.471Z,15.10
2018-07-16T01:25:47.655Z,15.09
2018-07-16T01:28:16.859Z,15.08
2018-07-16T01:30:46.059Z,15.09
2018-07-16T01:33:15.255Z,15.14
2018-07-16T01:35:44.430Z,15.15
2018-07-16T01:38:13.717Z,15.10
2018-07-16T01:40:43.239Z,15.01
2018-07-16T01:43:12.549Z,14.90
2018-07-16T01:45:41.754Z,14.77
2018-07-16T01:48:10.963Z,14.75
2018-07-16T01:50:40.155Z,14.87
2018-07-16T01:53:09.475Z,14.72
2018-07-16T01:55:39.061Z,14.67
2018-07-16T01:58:08.251Z,14.57
2018-07-16T02:00:48.692Z,14.57
2018-07-16T02:03:17.949Z,14.62
2018-07-16T02:05:47.127Z,14.57
2018-07-16T02:08:16.451Z,14.47
2018-07-16T02:10:45.723Z,14.40
2018-07-16T02:13:15.662Z,14.45
2018-07-16T02:15:44.872Z,14.48
2018-07-16T02:18:14.849Z,14.58
2018-07-16T02:20:44.735Z,14.56
2018-07-16T02:23:13.986Z,14.55
2018-07-16T02:25:43.499Z,14.47
2018-07-16T02:28:12.723Z,14.31
2018-07-16T02:30:42.239Z,14.30
2018-07-16T02:33:12.311Z,14.28
2018-07-16T02:35:41.693Z,14.37
2018-07-16T02:38:10.907Z,14.34
2018-07-16T02:40:40.512Z,14.38
2018-07-16T02:43:09.697Z,14.42
2018-07-16T02:45:39.060Z,14.37
2018-07-16T02:48:08.261Z,14.28
2018-07-16T02:50:37.564Z,14.29
2018-07-16T02:53:06.752Z,14.25
2018-07-16T02:55:35.975Z,14.29
2018-07-16T02:58:05.687Z,14.21
2018-07-16T03:00:34.931Z,14.03
2018-07-16T03:03:04.173Z,13.98
2018-07-16T03:05:33.403Z,13.88
2018-07-16T03:08:03.095Z,13.82
2018-07-16T03:10:32.294Z,13.89
2018-07-16T03:13:01.532Z,13.92
2018-07-16T03:15:30.948Z,13.90
2018-07-16T03:18:00.140Z,13.99
2018-07-16T03:20:29.331Z,13.98
2018-07-16T03:22:58.543Z,13.85
2018-07-16T03:25:27.858Z,13.88
2018-07-16T03:27:57.042Z,13.77
2018-07-16T03:30:26.520Z,13.88
2018-07-16T03:32:56.012Z,13.78
2018-07-16T03:35:25.225Z,13.90
2018-07-16T03:37:54.971Z,13.89
2018-07-16T03:40:24.235Z,13.95
2018-07-16T03:42:53.419Z,13.96
2018-07-16T03:45:22.638Z,13.90
2018-07-16T03:47:51.840Z,13.79
2018-07-16T03:50:21.047Z,13.80
2018-07-16T03:52:50.517Z,13.84
2018-07-16T03:55:19.703Z,13.88
2018-07-16T03:57:49.144Z,13.76
2018-07-16T04:00:18.556Z,13.79
2018-07-16T04:02:47.743Z,13.81
2018-07-16T04:05:16.959Z,13.85
2018-07-16T04:07:46.644Z,13.82
2018-07-16T04:10:15.843Z,13.81
2018-07-16T04:12:45.066Z,13.86
2018-07-16T04:15:14.591Z,13.94
2018-07-16T04:17:43.783Z,13.95
2018-07-16T04:20:12.987Z,14.05
2018-07-16T04:22:42.159Z,14.06
2018-07-16T04:25:11.599Z,14.00
2018-07-16T04:27:40.782Z,14.15
2018-07-16T04:30:09.998Z,14.24
2018-07-16T04:32:39.219Z,14.18
2018-07-16T04:35:08.643Z,14.28
2018-07-16T04:37:38.251Z,14.29
2018-07-16T04:40:07.548Z,14.44
2018-07-16T04:42:37.256Z,14.59
2018-07-16T04:45:06.578Z,14.75
2018-07-16T04:47:35.966Z,14.91
2018-07-16T04:50:05.180Z,14.97
2018-07-16T04:52:34.398Z,15.14
2018-07-16T04:55:03.612Z,15.14
2018-07-16T04:57:32.794Z,15.30
2018-07-16T05:00:01.979Z,15.37
2018-07-16T05:02:31.154Z,15.45
2018-07-16T05:05:00.359Z,15.75
2018-07-16T05:07:29.524Z,15.87
2018-07-16T05:09:59.150Z,15.95
2018-07-16T05:12:28.370Z,16.09
2018-07-16T05:14:57.598Z,16.19
2018-07-16T05:17:27.139Z,16.28
2018-07-16T05:19:56.518Z,16.51
2018-07-16T05:22:25.714Z,16.66
2018-07-16T05:24:54.903Z,16.83
2018-07-16T05:27:24.083Z,17.05
2018-07-16T05:29:53.287Z,17.25
2018-07-16T05:32:22.834Z,17.44
2018-07-16T05:34:51.903Z,17.66
2018-07-16T05:37:21.095Z,17.87
2018-07-16T05:39:50.624Z,18.04
2018-07-16T05:42:19.818Z,18.33
2018-07-16T05:44:49.627Z,18.61
2018-07-16T05:47:19.619Z,18.76
2018-07-16T05:49:48.835Z,18.85
2018-07-16T05:52:18.177Z,18.95
2018-07-16T05:54:47.399Z,18.95
2018-07-16T05:57:16.610Z,19.03
2018-07-16T05:59:45.945Z,19.17
2018-07-16T06:02:15.134Z,19.39
2018-07-16T06:04:44.348Z,20.04
2018-07-16T06:07:13.554Z,21.13
2018-07-16T06:09:42.771Z,21.99
2018-07-16T06:12:12.195Z,21.63
2018-07-16T06:14:41.504Z,22.15
2018-07-16T06:17:10.735Z,21.62
2018-07-16T06:19:39.936Z,22.09
2018-07-16T06:22:09.419Z,21.84
2018-07-16T06:24:38.691Z,22.70
2018-07-16T06:27:08.003Z,23.08
2018-07-16T06:29:37.175Z,24.10
2018-07-16T06:32:07.130Z,23.97
2018-07-16T06:34:36.307Z,25.40
2018-07-16T06:37:05.935Z,26.63
2018-07-16T06:39:35.191Z,26.47
2018-07-16T06:42:04.368Z,24.42
2018-07-16T06:44:33.542Z,24.95
2018-07-16T06:47:02.751Z,25.20
2018-07-16T06:49:31.931Z,25.10
2018-07-16T06:52:01.173Z,26.04
2018-07-16T06:54:30.356Z,27.38
2018-07-16T06:56:59.562Z,27.39
2018-07-16T06:59:29.119Z,28.38
2018-07-16T07:01:58.480Z,27.67
2018-07-16T07:04:27.634Z,29.22
2018-07-16T07:06:56.830Z,28.77
2018-07-16T07:09:25.998Z,27.17
2018-07-16T07:11:55.220Z,26.31
2018-07-16T07:14:24.386Z,26.87
2018-07-16T07:16:53.583Z,25.98
2018-07-16T07:19:23.202Z,26.48
2018-07-16T07:21:52.403Z,25.33
2018-07-16T07:24:22.168Z,26.00
2018-07-16T07:26:51.779Z,27.44
2018-07-16T07:29:21.164Z,28.30
2018-07-16T07:31:50.363Z,29.00
2018-07-16T07:34:19.692Z,28.48
2018-07-16T07:36:49.228Z,29.50
2018-07-16T07:39:18.432Z,29.34
2018-07-16T07:41:47.613Z,30.72
2018-07-16T07:44:16.783Z,31.72
2018-07-16T07:46:46.207Z,31.41
2018-07-16T07:49:15.379Z,31.54
2018-07-16T07:51:44.726Z,29.72
2018-07-16T07:54:14.002Z,30.07
2018-07-16T07:56:43.504Z,28.64
2018-07-16T07:59:12.709Z,31.75
2018-07-16T08:01:41.916Z,32.13
2018-07-16T08:04:11.294Z,32.55
2018-07-16T08:06:40.508Z,32.90
2018-07-16T08:09:09.691Z,32.75
2018-07-16T08:11:39.649Z,33.56
2018-07-16T08:14:09.423Z,35.10
2018-07-16T08:16:38.635Z,35.66
2018-07-16T08:19:07.847Z,31.72
2018-07-16T08:21:37.251Z,30.77
2018-07-16T08:24:06.427Z,33.14
2018-07-16T08:26:35.616Z,34.51
2018-07-16T08:29:04.815Z,34.83
2018-07-16T08:31:34.267Z,35.26
2018-07-16T08:34:03.763Z,36.22
2018-07-16T08:36:33.255Z,36.53
2018-07-16T08:39:02.570Z,36.76
2018-07-16T08:41:32.055Z,34.75
2018-07-16T08:44:01.235Z,35.98
2018-07-16T08:46:30.559Z,36.25
2018-07-16T08:49:00.131Z,35.76
2018-07-16T08:51:29.369Z,36.06
2018-07-16T08:53:58.543Z,34.21
2018-07-16T08:56:28.227Z,34.46
2018-07-16T08:58:57.415Z,37.24
2018-07-16T09:01:26.831Z,37.19
2018-07-16T09:03:56.064Z,38.48
2018-07-16T09:06:25.187Z,36.35
2018-07-16T09:08:54.656Z,35.96
2018-07-16T09:11:23.976Z,36.15
2018-07-16T09:13:53.052Z,35.87
2018-07-16T09:16:22.298Z,36.53
2018-07-16T09:18:51.485Z,38.39
2018-07-16T09:21:21.115Z,38.06
2018-07-16T09:23:50.736Z,39.85
2018-07-16T09:26:19.911Z,38.43
2018-07-16T09:28:49.136Z,39.41
2018-07-16T09:31:18.322Z,37.90
2018-07-16T09:33:47.827Z,38.39
2018-07-16T09:36:17.012Z,39.54
2018-07-16T09:38:46.319Z,39.34
2018-07-16T09:41:15.563Z,40.21
2018-07-16T09:43:45.123Z,39.92
2018-07-16T09:46:14.396Z,38.25
2018-07-16T09:48:43.748Z,39.37
2018-07-16T09:51:13.299Z,38.20
2018-07-16T09:53:42.519Z,37.06
2018-07-16T09:56:11.752Z,37.56
2018-07-16T09:58:40.915Z,38.62
2018-07-16T10:01:15.471Z,39.33
2018-07-16T10:03:44.667Z,38.37
2018-07-16T10:06:13.923Z,39.56
2018-07-16T10:08:43.116Z,41.79
2018-07-16T10:11:12.295Z,40.38
2018-07-16T10:13:41.984Z,39.55
2018-07-16T10:16:11.171Z,40.14
2018-07-16T10:18:40.363Z,40.83
2018-07-16T10:21:09.532Z,39.65
2018-07-16T10:23:38.943Z,40.99
2018-07-16T10:26:08.117Z,38.36
2018-07-16T10:28:37.309Z,34.96
2018-07-16T10:31:06.787Z,33.97
2018-07-16T10:33:36.691Z,33.35
2018-07-16T10:36:05.907Z,32.67
2018-07-16T10:38:35.136Z,30.89
2018-07-16T10:41:04.447Z,31.54
2018-07-16T10:43:33.971Z,31.67
2018-07-16T10:46:03.171Z,31.37
2018-07-16T10:48:32.492Z,31.63
2018-07-16T10:51:01.903Z,31.59
2018-07-16T10:53:31.434Z,30.86
2018-07-16T10:56:00.620Z,30.71
2018-07-16T10:58:29.816Z,30.56
2018-07-16T11:00:58.992Z,29.60
2018-07-16T11:03:28.198Z,29.07
2018-07-16T11:06:02.055Z,28.54
2018-07-16T11:08:31.302Z,28.86
2018-07-16T11:11:01.551Z,28.98
2018-07-16T11:13:30.739Z,29.05
2018-07-16T11:15:59.923Z,29.32
2018-07-16T11:18:29.135Z,29.33
2018-07-16T11:20:58.382Z,29.91
2018-07-16T11:23:27.499Z,30.70
2018-07-16T11:25:56.724Z,33.29
2018-07-16T11:28:25.910Z,36.19
2018-07-16T11:30:55.103Z,38.15
2018-07-16T11:33:24.546Z,38.23
2018-07-16T11:35:54.180Z,37.45
2018-07-16T11:38:23.318Z,36.34
2018-07-16T11:40:52.503Z,39.15
2018-07-16T11:43:21.715Z,38.40
2018-07-16T11:45:51.052Z,37.99
2018-07-16T11:48:20.227Z,38.40
2018-07-16T11:50:49.374Z,39.44
2018-07-16T11:53:18.565Z,37.12
2018-07-16T11:55:48.136Z,36.12
2018-07-16T11:58:17.327Z,33.46
2018-07-16T12:00:46.619Z,31.34
2018-07-16T12:03:15.792Z,31.37
2018-07-16T12:05:44.931Z,33.02
2018-07-16T12:08:14.088Z,34.24
2018-07-16T12:10:43.240Z,34.07
2018-07-16T12:13:12.527Z,31.50
2018-07-16T12:15:42.107Z,29.90
2018-07-16T12:18:11.252Z,28.98
2018-07-16T12:20:40.443Z,29.26
2018-07-16T12:23:09.822Z,28.91
2018-07-16T12:25:39.066Z,28.19
2018-07-16T12:28:08.286Z,28.28
2018-07-16T12:30:37.471Z,27.83
2018-07-16T12:33:06.652Z,27.26
2018-07-16T12:35:35.835Z,26.98
2018-07-16T12:38:05.039Z,26.61
2018-07-16T12:40:34.186Z,26.64
2018-07-16T12:43:03.583Z,26.62
2018-07-16T12:45:32.735Z,25.35
2018-07-16T12:48:01.997Z,24.42
2018-07-16T12:50:32.116Z,23.50
2018-07-16T12:53:01.299Z,22.68
2018-07-16T12:55:30.533Z,21.73
2018-07-16T12:57:59.612Z,21.05
2018-07-16T13:00:28.774Z,20.58
2018-07-16T13:02:57.954Z,20.62
2018-07-16T13:05:27.106Z,21.08
2018-07-16T13:07:56.499Z,20.77
2018-07-16T13:10:25.659Z,20.69
2018-07-16T13:12:54.835Z,20.68
2018-07-16T13:15:24.003Z,20.60
2018-07-16T13:17:53.194Z,20.85
2018-07-16T13:20:22.542Z,20.96
2018-07-16T13:22:51.703Z,21.34
2018-07-16T13:25:21.083Z,22.01
2018-07-16T13:27:50.615Z,22.03
2018-07-16T13:30:19.841Z,22.19
2018-07-16T13:32:49.135Z,22.10
2018-07-16T13:35:18.346Z,22.24
2018-07-16T13:37:47.519Z,22.20
2018-07-16T13:40:16.928Z,22.47
2018-07-16T13:42:46.096Z,24.17
2018-07-16T13:45:15.298Z,24.95
2018-07-16T13:47:44.551Z,27.01
2018-07-16T13:50:13.750Z,29.13
2018-07-16T13:52:43.098Z,30.30
2018-07-16T13:55:12.369Z,30.84
2018-07-16T13:57:41.527Z,29.84
2018-07-16T14:00:10.710Z,29.92
2018-07-16T14:02:39.851Z,29.67
2018-07-16T14:05:09.043Z,28.36
2018-07-16T14:07:38.200Z,28.86
2018-07-16T14:10:08.003Z,28.53
2018-07-16T14:12:37.159Z,28.12
2018-07-16T14:15:06.363Z,27.54
2018-07-16T14:17:35.535Z,27.70
2018-07-16T14:20:05.386Z,28.04
2018-07-16T14:22:34.536Z,29.35
2018-07-16T14:25:04.138Z,27.96
2018-07-16T14:27:33.315Z,28.57
2018-07-16T14:30:02.477Z,29.54
2018-07-16T14:32:31.624Z,29.66
2018-07-16T14:35:01.028Z,29.60
2018-07-16T14:37:30.191Z,28.58
2018-07-16T14:39:59.565Z,29.58
2018-07-16T14:42:28.691Z,29.26
2018-07-16T14:44:57.942Z,28.87
2018-07-16T14:47:27.176Z,28.51
2018-07-16T14:49:56.964Z,28.55
2018-07-16T14:52:26.115Z,28.93
2018-07-16T14:54:55.595Z,29.68
2018-07-16T14:57:25.142Z,29.22
2018-07-16T14:59:54.522Z,29.04
2018-07-16T15:02:23.688Z,29.91
2018-07-16T15:04:52.885Z,29.91
2018-07-16T15:07:22.092Z,29.98
2018-07-16T15:09:51.289Z,28.98
2018-07-16T15:12:20.762Z,28.53
2018-07-16T15:14:50.109Z,28.60
2018-07-16T15:17:19.310Z,28.92
2018-07-16T15:19:49.443Z,29.13
2018-07-16T15:22:18.515Z,29.42
2018-07-16T15:24:47.815Z,29.33
2018-07-16T15:27:16.994Z,29.24
2018-07-16T15:29:46.298Z,29.40
2018-07-16T15:32:15.811Z,29.77
2018-07-16T15:34:45.146Z,30.24
2018-07-16T15:37:14.543Z,29.25
2018-07-16T15:39:43.779Z,29.68
2018-07-16T15:42:13.807Z,29.77
2018-07-16T15:44:43.202Z,30.12
2018-07-16T15:47:12.566Z,29.83
2018-07-16T15:49:41.771Z,30.14
2018-07-16T15:52:11.154Z,30.27
2018-07-16T15:54:40.347Z,28.98
2018-07-16T15:57:09.666Z,29.01
2018-07-16T15:59:39.171Z,28.65
2018-07-16T16:02:08.543Z,28.39
2018-07-16T16:04:37.724Z,28.38
2018-07-16T16:07:08.054Z,28.36
2018-07-16T16:09:38.815Z,28.52
2018-07-16T16:12:08.431Z,28.22
2018-07-16T16:14:37.656Z,28.07
2018-07-16T16:17:06.844Z,28.31
2018-07-16T16:19:36.137Z,28.84
2018-07-16T16:22:06.231Z,29.29
2018-07-16T16:24:35.405Z,29.37
2018-07-16T16:27:04.579Z,29.20
2018-07-16T16:29:33.878Z,29.58
2018-07-16T16:32:03.055Z,28.78
2018-07-16T16:34:32.365Z,28.56
2018-07-16T16:37:01.519Z,28.44
2018-07-16T16:39:30.751Z,28.18
2018-07-16T16:42:00.239Z,28.53
2018-07-16T16:44:29.367Z,28.32
2018-07-16T16:46:58.559Z,27.66
2018-07-16T16:49:27.723Z,28.05
2018-07-16T16:51:57.247Z,28.02
2018-07-16T16:54:26.426Z,27.49
2018-07-16T16:56:55.595Z,27.84
2018-07-16T16:59:24.750Z,27.71
2018-07-16T17:01:53.950Z,27.72
2018-07-16T17:04:23.092Z,27.71
2018-07-16T17:06:52.286Z,27.40
2018-07-16T17:09:21.427Z,27.24
2018-07-16T17:11:50.693Z,27.18
2018-07-16T17:14:19.786Z,27.23
2018-07-16T17:16:48.981Z,27.21
2018-07-16T17:19:18.852Z,27.10
2018-07-16T17:21:48.036Z,27.10
2018-07-16T17:24:17.188Z,27.20
2018-07-16T17:26:46.371Z,27.25
2018-07-16T17:29:15.769Z,27.35
2018-07-16T17:31:44.958Z,26.97
2018-07-16T17:34:14.243Z,26.95
2018-07-16T17:36:43.554Z,27.04
2018-07-16T17:39:12.748Z,27.16
2018-07-16T17:41:41.931Z,26.71
2018-07-16T17:44:11.098Z,26.55
2018-07-16T17:46:40.275Z,26.54
2018-07-16T17:49:09.419Z,26.75
2018-07-16T17:51:38.791Z,26.83
2018-07-16T17:54:07.980Z,26.92
2018-07-16T17:56:37.163Z,26.79
2018-07-16T17:59:06.515Z,26.51
2018-07-16T18:01:35.942Z,26.47
2018-07-16T18:04:05.747Z,26.38
2018-07-16T18:06:34.927Z,26.16
2018-07-16T18:09:05.426Z,26.10
2018-07-16T18:11:34.605Z,26.07
2018-07-16T18:14:04.055Z,26.07
2018-07-16T18:16:33.215Z,25.97
2018-07-16T18:19:02.372Z,25.90
2018-07-16T18:21:31.739Z,25.83
2018-07-16T18:24:00.895Z,25.74
2018-07-16T18:26:30.070Z,25.56
2018-07-16T18:28:59.247Z,25.34
2018-07-16T18:31:28.416Z,25.28
2018-07-16T18:33:57.627Z,25.08
2018-07-16T18:36:26.810Z,25.07
2018-07-16T18:38:56.265Z,24.77
2018-07-16T18:41:25.903Z,24.44
2018-07-16T18:43:55.540Z,24.48
2018-07-16T18:46:24.796Z,24.21
2018-07-16T18:48:54.351Z,24.09
2018-07-16T18:51:24.210Z,24.03
2018-07-16T18:53:53.363Z,23.82
2018-07-16T18:56:22.535Z,23.38
2018-07-16T18:58:51.751Z,23.30
2018-07-16T19:01:20.912Z,23.09
2018-07-16T19:03:50.840Z,22.99
2018-07-16T19:06:20.011Z,22.84
2018-07-16T19:08:49.191Z,22.82
2018-07-16T19:11:18.379Z,22.83
2018-07-16T19:13:47.759Z,22.71
2018-07-16T19:16:16.972Z,22.32
2018-07-16T19:18:46.344Z,22.09
2018-07-16T19:21:15.536Z,21.92
2018-07-16T19:23:44.708Z,21.81
2018-07-16T19:26:13.891Z,21.64
2018-07-16T19:28:43.071Z,21.55
2018-07-16T19:31:12.326Z,21.22
2018-07-16T19:33:41.475Z,20.90
2018-07-16T19:36:10.659Z,20.64
2018-07-16T19:38:39.841Z,20.41
2018-07-16T19:41:09.424Z,20.18
2018-07-16T19:43:39.534Z,20.06
2018-07-16T19:46:09.547Z,19.87
2018-07-16T19:48:38.730Z,19.72
2018-07-16T19:51:07.939Z,19.67
2018-07-16T19:53:37.132Z,19.55
2018-07-16T19:56:06.331Z,19.40
2018-07-16T19:58:35.835Z,19.37
2018-07-16T20:01:05.020Z,19.14
2018-07-16T20:03:34.639Z,19.04
2018-07-16T20:06:03.831Z,18.90
2018-07-16T20:08:34.375Z,18.80
2018-07-16T20:11:03.554Z,18.72
2018-07-16T20:13:32.747Z,18.68
2018-07-16T20:16:01.940Z,18.64
2018-07-16T20:18:31.331Z,18.59
2018-07-16T20:21:01.612Z,18.61
2018-07-16T20:23:30.684Z,18.53
2018-07-16T20:26:00.235Z,18.41
2018-07-16T20:28:29.411Z,18.23
2018-07-16T20:30:58.705Z,18.14
2018-07-16T20:33:27.891Z,18.01
2018-07-16T20:35:57.051Z,17.94
2018-07-16T20:38:26.644Z,17.78
2018-07-16T20:40:55.835Z,17.60
2018-07-16T20:43:25.139Z,17.57
2018-07-16T20:45:54.411Z,17.64
2018-07-16T20:48:23.604Z,17.61
2018-07-16T20:50:52.800Z,17.67
2018-07-16T20:53:21.954Z,17.67
2018-07-16T20:55:51.338Z,17.58
2018-07-16T20:58:20.524Z,17.38
2018-07-16T21:00:49.958Z,17.31
2018-07-16T21:03:19.263Z,17.35
2018-07-16T21:05:49.155Z,17.40
2018-07-16T21:08:18.444Z,17.36
2018-07-16T21:10:47.971Z,17.21
2018-07-16T21:13:17.155Z,17.10
2018-07-16T21:15:46.356Z,17.03
2018-07-16T21:18:15.555Z,16.96
2018-07-16T21:20:44.973Z,16.97
2018-07-16T21:23:14.154Z,16.94
2018-07-16T21:25:43.311Z,16.92
2018-07-16T21:28:12.471Z,16.98
2018-07-16T21:30:41.787Z,17.00
2018-07-16T21:33:11.041Z,16.99
2018-07-16T21:35:40.253Z,16.85
2018-07-16T21:38:09.472Z,16.83
2018-07-16T21:40:38.840Z,16.76
2018-07-16T21:43:07.885Z,16.69
2018-07-16T21:45:37.042Z,16.61
2018-07-16T21:48:09.299Z,16.70
2018-07-16T21:50:38.451Z,16.62
2018-07-16T21:53:07.662Z,16.58
2018-07-16T21:55:36.993Z,16.60
2018-07-16T21:58:06.520Z,16.50
2018-07-16T22:00:35.739Z,16.41
2018-07-16T22:03:05.071Z,16.27
2018-07-16T22:05:34.259Z,16.19
2018-07-16T22:08:03.559Z,16.03
2018-07-16T22:10:32.787Z,16.15
2018-07-16T22:13:02.019Z,16.14
2018-07-16T22:15:31.519Z,16.07
2018-07-16T22:18:00.707Z,15.95
2018-07-16T22:20:29.864Z,16.01
2018-07-16T22:22:59.108Z,15.96
2018-07-16T22:25:28.423Z,15.96
2018-07-16T22:27:57.662Z,15.89
2018-07-16T22:30:26.850Z,15.95
2018-07-16T22:32:56.102Z,15.85
2018-07-16T22:35:25.757Z,15.74
2018-07-16T22:37:54.968Z,15.68
2018-07-16T22:40:24.179Z,15.69
2018-07-16T22:42:54.571Z,15.68
2018-07-16T22:45:23.742Z,15.63
2018-07-16T22:47:52.972Z,15.62
2018-07-16T22:50:22.161Z,15.58
2018-07-16T22:52:51.360Z,15.49
2018-07-16T22:55:21.181Z,15.53
2018-07-16T22:57:50.386Z,15.50
2018-07-16T23:00:19.574Z,15.42
2018-07-16T23:02:48.775Z,15.50
2018-07-16T23:05:18.988Z,15.51
2018-07-16T23:07:48.206Z,15.42
2018-07-16T23:10:17.383Z,15.37
2018-07-16T23:12:46.624Z,15.40
2018-07-16T23:15:15.943Z,15.39
2018-07-16T23:17:45.584Z,15.36
2018-07-16T23:20:14.759Z,15.26
2018-07-16T23:22:52.145Z,15.26
2018-07-16T23:25:21.831Z,15.21
2018-07-16T23:27:51.067Z,15.17
2018-07-16T23:30:20.387Z,15.17
2018-07-16T23:32:49.799Z,15.18
2018-07-16T23:35:19.050Z,15.14
2018-07-16T23:37:48.251Z,15.17
2018-07-16T23:40:17.446Z,15.16
2018-07-16T23:42:46.615Z,14.92
2018-07-16T23:45:15.822Z,14.92
2018-07-16T23:47:45.219Z,14.95
2018-07-16T23:50:15.301Z,14.92
2018-07-16T23:52:44.403Z,14.97
2018-07-16T23:55:14.251Z,14.94
2018-07-16T23:57:43.426Z,14.92
